Time;durP1;ratioP1;P1;durP2;ratioP2;P2;SDS_P1;SDS_P2;PMS_P1;PMS_P2;Temp;Humidity;BMP_temperature;BMP_pressure;BME280_temperature;BME280_humidity;BME280_pressure;Samples;Min_cycle;Max_cycle;Signal;HPM_P1;HPM_P2
2023/03/22 00:03:28;;;;;;;10.50;8.83;;;12.00;99.90;;;;;;2611366;54;20527;-69
2023/03/22 00:09:15;;;;;;;9.73;8.77;;;11.90;99.90;;;;;;2611434;39;20531;-68
2023/03/22 00:15:03;;;;;;;9.20;8.30;;;11.80;99.90;;;;;;2613202;54;20157;-69
2023/03/22 00:20:53;;;;;;;11.10;8.10;;;11.70;99.90;;;;;;2613910;54;20379;-69
2023/03/22 00:26:41;;;;;;;10.80;8.07;;;11.80;99.90;;;;;;2612677;54;20367;-69
2023/03/22 00:29:55;;;;;;;10.00;9.20;;;11.80;99.90;;;;;;2611048;54;21378;-69
2023/03/22 00:32:21;;;;;;;11.07;10.03;;;11.80;99.90;;;;;;2610022;54;20150;-69
2023/03/22 00:38:13;;;;;;;10.80;9.80;;;11.80;99.90;;;;;;2610919;54;20668;-69
2023/03/22 00:44:00;;;;;;;10.23;9.40;;;11.70;99.90;;;;;;2611352;54;20366;-70
2023/03/22 00:49:48;;;;;;;10.10;8.80;;;11.70;99.90;;;;;;2609955;54;20150;-69
2023/03/22 00:55:36;;;;;;;10.00;8.60;;;11.60;99.90;;;;;;2610479;54;20138;-69
2023/03/22 01:01:24;;;;;;;10.77;9.47;;;11.60;99.90;;;;;;2611056;54;20174;-69
2023/03/22 01:07:20;;;;;;;13.70;9.53;;;11.30;99.90;;;;;;2610522;54;20483;-69
2023/03/22 01:13:08;;;;;;;11.40;9.10;;;11.30;99.90;;;;;;2611839;54;20406;-68
2023/03/22 01:16:11;;;;;;;11.53;10.17;;;11.30;99.90;;;;;;2610363;54;20454;-69
2023/03/22 01:18:37;;;;;;;14.10;10.57;;;11.20;99.90;;;;;;2613434;39;20908;-69
2023/03/22 01:24:25;;;;;;;13.30;11.23;;;11.30;99.90;;;;;;2613370;54;20126;-69
2023/03/22 01:34:27;;;;;;;11.83;10.53;;;11.40;99.90;;;;;;2609866;39;20784;-68
2023/03/22 01:40:15;;;;;;;12.80;10.80;;;11.50;99.90;;;;;;2610822;54;20511;-69
2023/03/22 01:46:03;;;;;;;13.17;11.43;;;11.40;99.90;;;;;;2610940;54;20131;-69
2023/03/22 01:51:53;;;;;;;14.00;10.60;;;11.50;99.90;;;;;;2609557;54;20126;-69
2023/03/22 01:57:42;;;;;;;10.97;9.87;;;11.40;99.90;;;;;;2611258;46;20375;-68
2023/03/22 02:20:19;;;;;;;15.70;11.87;;;10.70;99.90;;;;;;2610947;54;20414;-74
2023/03/22 02:40:04;;;;;;;17.40;11.70;;;10.50;99.90;;;;;;2612089;39;20883;-74
2023/03/22 02:46:00;;;;;;;14.90;12.00;;;10.40;99.90;;;;;;2611019;39;20603;-74
2023/03/22 03:04:42;;;;;;;13.83;11.03;;;10.10;99.90;;;;;;2610878;39;21290;-74
2023/03/22 03:10:31;;;;;;;16.30;11.77;;;10.00;99.90;;;;;;2610781;54;21133;-74
2023/03/22 03:16:21;;;;;;;13.63;11.13;;;9.90;99.90;;;;;;2609980;54;20443;-73
2023/03/22 03:28:45;;;;;;;12.23;11.00;;;9.80;99.90;;;;;;2610389;54;20362;-73
2023/03/22 03:38:07;;;;;;;14.63;13.03;;;9.80;99.90;;;;;;2610655;54;21188;-73
2023/03/22 03:43:57;;;;;;;15.50;12.50;;;10.00;99.90;;;;;;2610526;54;21008;-74
2023/03/22 03:49:45;;;;;;;13.83;11.50;;;10.00;99.90;;;;;;2610554;39;20893;-69
2023/03/22 03:55:33;;;;;;;14.90;12.07;;;9.90;99.90;;;;;;2611105;54;20122;-68
2023/03/22 04:01:20;;;;;;;14.40;11.57;;;9.80;99.90;;;;;;2609645;54;20130;-70
2023/03/22 04:07:08;;;;;;;8.17;6.57;;;9.90;99.90;;;;;;2611068;54;20173;-70
2023/03/22 04:12:56;;;;;;;13.97;11.90;;;9.80;99.90;;;;;;2610592;54;20126;-70
2023/03/22 04:18:44;;;;;;;11.33;10.17;;;9.70;99.90;;;;;;2610644;54;20122;-70
2023/03/22 04:24:32;;;;;;;12.53;10.60;;;9.80;99.90;;;;;;2609000;54;20474;-71
2023/03/22 04:30:21;;;;;;;12.37;9.70;;;9.90;99.90;;;;;;2610551;54;20134;-70
2023/03/22 04:33:27;;;;;;;12.83;9.80;;;9.90;99.90;;;;;;2610022;54;20411;-71
2023/03/22 04:35:55;;;;;;;15.67;10.00;;;10.20;99.90;;;;;;2610097;54;20470;-70
2023/03/22 04:41:43;;;;;;;12.87;10.10;;;10.10;99.90;;;;;;2609270;54;20375;-70
2023/03/22 04:47:31;;;;;;;14.20;10.17;;;10.20;99.90;;;;;;2609928;54;20118;-71
2023/03/22 04:53:19;;;;;;;10.53;9.20;;;10.50;99.90;;;;;;2610040;54;20644;-70
2023/03/22 04:59:07;;;;;;;10.33;9.20;;;10.20;99.90;;;;;;2609828;46;20159;-70
2023/03/22 05:04:54;;;;;;;12.07;9.13;;;10.20;99.90;;;;;;2610793;54;20169;-70
2023/03/22 05:10:42;;;;;;;13.93;10.40;;;10.20;99.90;;;;;;2612865;54;20641;-70
2023/03/22 05:16:30;;;;;;;16.17;10.13;;;10.20;99.90;;;;;;2610982;31;20619;-71
2023/03/22 05:22:18;;;;;;;11.30;9.87;;;10.10;99.90;;;;;;2614041;54;20178;-71
2023/03/22 05:28:05;;;;;;;12.07;9.40;;;10.30;99.90;;;;;;2611256;54;20395;-70
2023/03/22 05:30:50;;;;;;;9.70;8.50;;;10.30;99.90;;;;;;2609878;54;20400;-72
2023/03/22 05:33:20;;;;;;;9.20;8.23;;;10.30;99.90;;;;;;2609876;47;20418;-71
2023/03/22 05:36:23;;;;;;;12.40;9.63;;;10.40;99.90;;;;;;2609979;54;20522;-70
2023/03/22 05:38:49;;;;;;;11.30;9.17;;;10.50;99.90;;;;;;2610228;54;20415;-70
2023/03/22 05:44:37;;;;;;;10.40;9.30;;;10.80;99.90;;;;;;2611287;54;20123;-70
2023/03/22 05:50:25;;;;;;;9.50;8.60;;;11.00;99.90;;;;;;2609803;54;20247;-69
2023/03/22 05:56:14;;;;;;;9.17;8.20;;;10.90;99.90;;;;;;2611270;54;20125;-70
2023/03/22 06:02:01;;;;;;;9.33;8.33;;;11.10;99.90;;;;;;2609943;54;20367;-71
2023/03/22 06:07:49;;;;;;;13.93;9.27;;;11.20;99.90;;;;;;2611067;54;20194;-70
2023/03/22 06:13:37;;;;;;;11.23;7.87;;;11.20;99.90;;;;;;2610891;54;20126;-70
2023/03/22 06:19:25;;;;;;;12.60;9.70;;;11.30;99.90;;;;;;2610597;54;20138;-72
2023/03/22 06:25:13;;;;;;;12.97;9.33;;;11.40;99.90;;;;;;2611477;54;20174;-70
2023/03/22 06:31:06;;;;;;;10.03;9.07;;;11.50;99.90;;;;;;2610084;39;20435;-71
2023/03/22 06:40:59;;;;;;;10.30;8.30;;;11.70;99.90;;;;;;2614482;54;20396;-70
2023/03/22 06:46:47;;;;;;;11.10;9.53;;;11.70;99.90;;;;;;2607223;54;20408;-69
2023/03/22 06:52:35;;;;;;;12.57;8.40;;;11.80;99.90;;;;;;2603557;54;20161;-70
2023/03/22 06:58:23;;;;;;;11.07;7.77;;;11.90;99.90;;;;;;2610419;54;20362;-69
2023/03/22 07:01:26;;;;;;;9.23;8.33;;;12.00;99.90;;;;;;2612720;39;20818;-70
2023/03/22 07:03:52;;;;;;;9.50;8.27;;;12.10;99.90;;;;;;2607589;54;20162;-70
2023/03/22 07:09:40;;;;;;;12.67;7.97;;;12.10;99.90;;;;;;2610075;54;20138;-69
2023/03/22 07:15:28;;;;;;;8.47;7.77;;;12.10;99.90;;;;;;2609199;54;20131;-69
2023/03/22 07:21:16;;;;;;;15.10;7.83;;;12.00;99.90;;;;;;2610636;54;21547;-70
2023/03/22 07:27:04;;;;;;;10.20;7.60;;;12.10;99.90;;;;;;2607504;54;20134;-70
2023/03/22 07:32:52;;;;;;;8.77;7.50;;;12.50;99.90;;;;;;2611388;54;20117;-69
2023/03/22 07:38:40;;;;;;;7.57;6.97;;;12.80;99.90;;;;;;2611910;54;20298;-69
2023/03/22 07:44:28;;;;;;;8.10;7.40;;;12.80;98.30;;;;;;2611996;54;20448;-69
2023/03/22 07:50:16;;;;;;;9.50;8.60;;;13.80;92.30;;;;;;2612527;54;20134;-70
2023/03/22 07:56:04;;;;;;;11.63;7.83;;;13.60;88.80;;;;;;2613489;54;20980;-69
2023/03/22 08:01:52;;;;;;;9.13;8.03;;;13.80;83.60;;;;;;2610836;54;20347;-70
2023/03/22 08:07:41;;;;;;;8.77;7.87;;;13.10;91.40;;;;;;2613246;54;20239;-69
2023/03/22 08:13:28;;;;;;;9.07;8.17;;;12.90;95.70;;;;;;2613691;31;20842;-70
2023/03/22 08:19:16;;;;;;;8.10;7.40;;;12.80;99.80;;;;;;2611260;54;20139;-69
2023/03/22 08:25:04;;;;;;;7.63;7.07;;;13.00;99.80;;;;;;2613333;54;20218;-69
2023/03/22 08:30:52;;;;;;;7.33;6.80;;;13.20;93.10;;;;;;2614683;54;20387;-70
2023/03/22 08:41:00;;;;;;;7.90;7.30;;;13.40;88.10;;;;;;2614388;54;20407;-70
2023/03/22 08:46:48;;;;;;;6.87;6.27;;;13.70;83.00;;;;;;2614175;54;20411;-70
2023/03/22 08:52:35;;;;;;;12.27;6.13;;;13.40;76.50;;;;;;2614754;54;20139;-70
2023/03/22 08:58:23;;;;;;;6.50;6.00;;;13.40;68.00;;;;;;2614915;54;20255;-71
2023/03/22 09:04:11;;;;;;;6.47;6.07;;;13.10;64.20;;;;;;2611554;54;20394;-68
2023/03/22 09:09:59;;;;;;;6.63;6.33;;;13.40;59.60;;;;;;2613836;54;20158;-70
2023/03/22 09:15:46;;;;;;;6.97;6.47;;;13.70;57.00;;;;;;2614407;54;21116;-69
2023/03/22 09:21:34;;;;;;;7.50;7.00;;;14.60;50.80;;;;;;2613009;54;20686;-69
2023/03/22 09:27:22;;;;;;;8.00;7.40;;;15.00;39.50;;;;;;2613953;54;20371;-69
2023/03/22 09:33:10;;;;;;;8.87;8.27;;;16.50;31.50;;;;;;2612448;54;20227;-70
2023/03/22 09:36:28;;;;;;;8.83;8.30;;;15.80;27.80;;;;;;2611949;54;20403;-71
2023/03/22 09:38:53;;;;;;;9.80;8.83;;;15.80;26.90;;;;;;2611672;54;20403;-69
2023/03/22 09:44:44;;;;;;;8.23;7.70;;;15.80;24.50;;;;;;2611848;39;20530;-70
2023/03/22 09:50:32;;;;;;;8.43;7.77;;;14.50;22.50;;;;;;2613951;54;20387;-69
2023/03/22 09:56:24;;;;;;;9.30;8.50;;;14.20;25.90;;;;;;2611654;54;20371;-69
2023/03/22 10:15:46;;;;;;;9.23;8.20;;;14.40;25.20;;;;;;2608892;54;20966;-69
2023/03/22 10:21:35;;;;;;;7.43;7.03;;;14.10;25.70;;;;;;2612359;54;20405;-70
2023/03/22 10:27:25;;;;;;;8.03;7.43;;;14.10;26.60;;;;;;2612640;54;20921;-69
2023/03/22 10:36:29;;;;;;;9.33;8.63;;;14.30;26.80;;;;;;2609528;54;20496;-69
2023/03/22 10:39:02;;;;;;;8.77;8.17;;;14.40;23.90;;;;;;2611240;54;20412;-70
2023/03/22 10:51:06;;;;;;;9.30;8.60;;;14.80;22.00;;;;;;2612145;39;21045;-69
2023/03/22 10:56:54;;;;;;;8.60;7.97;;;14.60;23.60;;;;;;2612636;54;20407;-70
2023/03/22 11:02:52;;;;;;;8.57;7.87;;;15.20;23.30;;;;;;2610511;54;20657;-69
2023/03/22 11:08:42;;;;;;;8.80;8.30;;;15.10;22.20;;;;;;2612232;54;20387;-70
2023/03/22 11:14:34;;;;;;;10.67;9.93;;;14.60;22.20;;;;;;2611869;54;20527;-69
2023/03/22 11:20:21;;;;;;;8.37;7.80;;;14.80;20.90;;;;;;2612499;54;20451;-69
2023/03/22 11:26:12;;;;;;;8.13;7.60;;;14.50;22.20;;;;;;2612518;39;20571;-69
2023/03/22 11:32:00;;;;;;;9.93;9.23;;;14.70;23.00;;;;;;2612662;54;20480;-69
2023/03/22 11:41:28;;;;;;;9.60;9.00;;;14.20;26.60;;;;;;2612529;54;20463;-70
2023/03/22 11:47:16;;;;;;;8.17;7.77;;;14.20;29.30;;;;;;2609354;54;20387;-70
2023/03/22 11:53:07;;;;;;;8.40;7.90;;;13.90;28.60;;;;;;2611479;54;20162;-70
2023/03/22 11:58:58;;;;;;;9.07;8.50;;;13.80;30.00;;;;;;2613126;54;20387;-70
2023/03/22 12:04:48;;;;;;;7.77;7.00;;;13.70;28.40;;;;;;2611420;54;20961;-69
2023/03/22 12:10:40;;;;;;;8.50;8.00;;;13.70;30.10;;;;;;2611723;54;20412;-70
2023/03/22 12:16:35;;;;;;;8.20;7.70;;;13.90;32.20;;;;;;2612517;54;20363;-70
2023/03/22 12:22:30;;;;;;;8.47;8.00;;;13.70;33.20;;;;;;2610930;54;20439;-69
2023/03/22 12:28:21;;;;;;;10.63;7.40;;;13.60;33.60;;;;;;2612598;54;20391;-70
2023/03/22 12:34:16;;;;;;;8.63;8.10;;;13.90;28.40;;;;;;2611580;54;20491;-70
2023/03/22 12:43:36;;;;;;;8.73;8.23;;;14.00;23.90;;;;;;2611325;54;20419;-70
2023/03/22 12:56:23;;;;;;;8.40;8.00;;;13.70;25.20;;;;;;2611965;54;20394;-69
2023/03/22 13:02:14;;;;;;;8.23;7.63;;;13.50;27.60;;;;;;2609594;54;20473;-70
2023/03/22 13:08:05;;;;;;;7.17;6.67;;;13.20;43.40;;;;;;2608651;54;20543;-70
2023/03/22 13:13:52;;;;;;;8.23;7.53;;;13.10;44.40;;;;;;2609430;54;20415;-70
2023/03/22 13:26:15;;;;;;;8.57;7.77;;;13.50;43.40;;;;;;2603269;54;20415;-71
2023/03/22 13:45:34;;;;;;;12.80;7.50;;;13.60;39.00;;;;;;2612546;54;20427;-69
2023/03/22 13:51:22;;;;;;;9.47;8.93;;;13.70;39.20;;;;;;2611211;54;20182;-70
2023/03/22 14:03:45;;;;;;;8.53;7.83;;;13.70;36.90;;;;;;2608977;54;20411;-70
2023/03/22 14:09:43;;;;;;;8.20;7.60;;;13.80;39.50;;;;;;2611573;39;20909;-69
2023/03/22 14:15:37;;;;;;;7.90;7.30;;;13.70;45.20;;;;;;2613001;54;20380;-70
2023/03/22 14:21:31;;;;;;;8.50;7.80;;;13.50;46.90;;;;;;2611797;54;20426;-70
2023/03/22 14:27:20;;;;;;;8.17;7.57;;;13.50;46.90;;;;;;2611559;54;20930;-69
2023/03/22 14:37:41;;;;;;;8.93;8.07;;;13.90;44.70;;;;;;2609639;54;20969;-71
2023/03/22 14:43:29;;;;;;;8.83;8.13;;;13.60;50.30;;;;;;2609613;54;21130;-71
2023/03/22 14:46:47;;;;;;;9.07;8.07;;;13.70;50.70;;;;;;2607652;51;20453;-71
2023/03/22 14:52:36;;;;;;;8.20;7.43;;;13.50;55.80;;;;;;2611190;54;20424;-70
2023/03/22 15:04:40;;;;;;;9.13;8.43;;;13.40;59.60;;;;;;2608889;39;20759;-71
2023/03/22 15:10:28;;;;;;;8.37;7.97;;;13.40;64.20;;;;;;2611389;54;20533;-71
2023/03/22 15:19:42;;;;;;;8.67;8.07;;;13.40;70.00;;;;;;2611152;54;20359;-71
2023/03/22 15:25:34;;;;;;;8.33;7.53;;;13.40;71.30;;;;;;2610725;54;20375;-71
2023/03/22 15:37:37;;;;;;;7.33;6.83;;;13.40;79.40;;;;;;2605927;39;20465;-71
2023/03/22 15:53:34;;;;;;;7.90;7.13;;;13.60;72.40;;;;;;2610559;54;20364;-70
2023/03/22 15:59:24;;;;;;;8.87;8.13;;;13.60;67.20;;;;;;2610957;54;20412;-70
2023/03/22 16:05:12;;;;;;;9.60;7.20;;;13.70;66.60;;;;;;2610897;54;20407;-69
2023/03/22 16:10:59;;;;;;;7.20;6.80;;;13.70;66.30;;;;;;2609808;54;20147;-70
2023/03/22 16:16:47;;;;;;;7.27;6.57;;;13.60;67.60;;;;;;2609727;39;20611;-69
2023/03/22 16:22:34;;;;;;;6.97;6.37;;;13.70;67.60;;;;;;2609995;54;20367;-70
2023/03/22 16:28:21;;;;;;;7.13;6.70;;;13.70;71.80;;;;;;2608502;54;20147;-70
2023/03/22 16:34:10;;;;;;;7.47;7.07;;;13.70;69.60;;;;;;2610385;54;20649;-70
2023/03/22 16:39:57;;;;;;;8.57;7.77;;;13.70;69.80;;;;;;2612671;31;20868;-70
2023/03/22 16:49:07;;;;;;;8.27;7.67;;;13.70;71.80;;;;;;2613315;54;23364;-69
2023/03/22 16:54:55;;;;;;;8.33;7.73;;;13.60;71.50;;;;;;2612900;54;20114;-71
2023/03/22 17:00:43;;;;;;;9.47;8.37;;;13.60;71.50;;;;;;2613165;54;20389;-70
2023/03/22 17:06:32;;;;;;;8.80;8.30;;;13.60;72.00;;;;;;2612046;54;20399;-70
2023/03/22 17:12:26;;;;;;;8.30;7.53;;;13.60;73.30;;;;;;2612549;54;20363;-70
2023/03/22 17:18:14;;;;;;;8.60;7.90;;;13.60;70.90;;;;;;2609099;54;20367;-70
2023/03/22 17:24:02;;;;;;;8.20;7.50;;;13.60;68.50;;;;;;2610293;54;20499;-69
2023/03/22 17:29:50;;;;;;;8.73;8.00;;;13.50;73.00;;;;;;2608480;54;20138;-70
2023/03/22 17:35:40;;;;;;;7.80;7.13;;;13.50;72.60;;;;;;2612915;54;20684;-70
2023/03/22 17:41:28;;;;;;;9.43;7.90;;;13.50;74.40;;;;;;2612212;39;20788;-70
2023/03/22 17:44:31;;;;;;;8.40;7.90;;;13.50;72.10;;;;;;2612313;54;20510;-70
2023/03/22 17:46:58;;;;;;;8.13;7.63;;;13.50;73.00;;;;;;2612777;54;20158;-70
2023/03/22 17:52:47;;;;;;;7.83;7.03;;;13.50;77.60;;;;;;2611911;54;20395;-70
2023/03/22 17:58:34;;;;;;;7.67;7.10;;;13.60;74.50;;;;;;2612851;54;20376;-70
2023/03/22 18:04:22;;;;;;;6.63;6.30;;;13.60;81.30;;;;;;2612653;54;20267;-71
2023/03/22 18:10:11;;;;;;;7.60;7.20;;;13.50;89.30;;;;;;2613007;54;20640;-71
2023/03/22 18:16:00;;;;;;;7.20;6.67;;;13.40;99.90;;;;;;2613713;54;22238;-71
2023/03/22 18:21:53;;;;;;;6.90;6.50;;;13.30;99.90;;;;;;2608074;54;21363;-73
2023/03/22 18:27:41;;;;;;;7.40;6.90;;;13.30;99.90;;;;;;2612188;54;20387;-73
2023/03/22 18:33:29;;;;;;;6.53;5.93;;;13.30;99.90;;;;;;2609625;54;20395;-73
2023/03/22 18:39:20;;;;;;;6.70;6.13;;;13.50;99.90;;;;;;2610478;54;20162;-73
2023/03/22 18:49:01;;;;;;;6.90;6.40;;;13.60;98.30;;;;;;2613535;54;20362;-74
2023/03/22 18:54:49;;;;;;;7.90;6.57;;;13.40;99.90;;;;;;2614783;54;20876;-73
2023/03/22 19:00:36;;;;;;;8.73;8.03;;;13.40;99.90;;;;;;2612072;54;20254;-74
2023/03/22 19:03:39;;;;;;;6.27;5.97;;;13.50;99.90;;;;;;2613099;54;20506;-74
2023/03/22 19:06:11;;;;;;;6.47;5.83;;;13.50;99.80;;;;;;2614183;54;20273;-74
2023/03/22 19:12:00;;;;;;;10.10;7.47;;;13.50;99.50;;;;;;2614275;54;20415;-74
2023/03/22 19:17:48;;;;;;;7.60;7.10;;;13.50;99.90;;;;;;2613104;54;20395;-73
2023/03/22 19:23:35;;;;;;;8.03;7.40;;;13.50;99.60;;;;;;2612871;54;20366;-73
2023/03/22 19:29:27;;;;;;;7.03;6.53;;;13.50;99.90;;;;;;2612327;54;20130;-73
2023/03/22 19:35:15;;;;;;;7.60;7.00;;;13.50;99.90;;;;;;2613054;54;20944;-74
2023/03/22 19:41:08;;;;;;;7.70;7.17;;;13.40;99.90;;;;;;2612724;54;20154;-73
2023/03/22 19:44:30;;;;;;;8.83;7.00;;;13.30;99.90;;;;;;2613448;54;20411;-73
2023/03/22 19:46:56;;;;;;;7.93;7.13;;;13.20;99.90;;;;;;2613408;54;20420;-73
2023/03/22 19:52:45;;;;;;;6.83;6.20;;;13.10;99.90;;;;;;2612639;54;20247;-74
2023/03/22 19:58:36;;;;;;;6.90;6.40;;;13.10;99.90;;;;;;2610438;54;20475;-73
2023/03/22 20:04:24;;;;;;;5.70;5.23;;;12.80;99.90;;;;;;2612087;54;20363;-74
2023/03/22 20:10:12;;;;;;;5.90;5.30;;;12.60;99.90;;;;;;2612674;54;20374;-74
2023/03/22 20:15:59;;;;;;;5.77;5.30;;;12.50;99.90;;;;;;2612284;54;20367;-73
2023/03/22 20:21:47;;;;;;;9.07;5.67;;;12.40;99.90;;;;;;2611175;39;20578;-73
2023/03/22 20:27:39;;;;;;;5.43;5.00;;;12.60;99.90;;;;;;2613293;54;20155;-73
2023/03/22 20:33:28;;;;;;;9.10;5.70;;;12.60;99.90;;;;;;2613148;54;20370;-74
2023/03/22 20:39:15;;;;;;;9.90;5.87;;;12.70;99.90;;;;;;2614773;54;21707;-73
2023/03/22 20:49:02;;;;;;;6.43;5.83;;;12.80;99.90;;;;;;2614073;54;20374;-73
2023/03/22 20:54:50;;;;;;;5.90;5.40;;;12.80;99.90;;;;;;2612354;54;20359;-72
2023/03/22 21:00:38;;;;;;;7.90;6.17;;;12.90;99.90;;;;;;2612310;54;20491;-73
2023/03/22 21:06:27;;;;;;;8.80;5.03;;;13.00;99.90;;;;;;2612000;39;20580;-73
2023/03/22 21:12:14;;;;;;;5.80;5.30;;;12.80;99.90;;;;;;2614011;54;20423;-74
2023/03/22 21:18:02;;;;;;;6.23;5.63;;;12.70;99.90;;;;;;2613538;54;20134;-72
2023/03/22 21:23:50;;;;;;;5.37;4.47;;;12.50;99.90;;;;;;2614568;54;20155;-74
2023/03/22 21:29:37;;;;;;;5.60;5.10;;;12.40;99.90;;;;;;2614567;54;20150;-74
2023/03/22 21:35:25;;;;;;;6.43;4.43;;;12.20;99.90;;;;;;2614033;54;20636;-73
2023/03/22 21:41:13;;;;;;;7.43;5.10;;;12.20;99.90;;;;;;2613390;54;20138;-73
2023/03/22 21:44:30;;;;;;;5.07;3.90;;;12.20;99.90;;;;;;2610891;54;21037;-74
2023/03/22 21:46:57;;;;;;;8.67;5.27;;;12.20;99.90;;;;;;2612736;39;20579;-73
2023/03/22 21:52:44;;;;;;;5.50;3.37;;;12.10;99.90;;;;;;2612103;54;21343;-74
2023/03/22 21:58:32;;;;;;;6.63;4.60;;;12.00;99.90;;;;;;2612791;54;20258;-74
2023/03/22 22:04:21;;;;;;;8.30;5.57;;;11.80;99.90;;;;;;2612549;54;20395;-74
2023/03/22 22:10:09;;;;;;;8.00;6.20;;;11.80;99.90;;;;;;2611574;54;20367;-74
2023/03/22 22:15:59;;;;;;;9.93;5.33;;;11.70;99.90;;;;;;2612332;54;20143;-74
2023/03/22 22:21:47;;;;;;;7.50;4.97;;;11.60;99.90;;;;;;2612449;54;20821;-74
2023/03/22 22:27:34;;;;;;;7.00;5.33;;;11.50;99.90;;;;;;2612249;54;20632;-74
2023/03/22 22:33:22;;;;;;;8.30;5.70;;;11.50;99.90;;;;;;2613352;54;20166;-74
2023/03/22 22:39:11;;;;;;;12.10;5.97;;;11.50;99.90;;;;;;2611395;54;20134;-74
2023/03/22 22:49:02;;;;;;;7.40;6.30;;;11.40;99.90;;;;;;2613849;54;20391;-73
2023/03/22 22:54:49;;;;;;;11.50;6.33;;;11.10;99.90;;;;;;2612626;39;20994;-72
2023/03/22 23:00:38;;;;;;;8.10;6.40;;;11.10;99.90;;;;;;2611445;54;20169;-73
2023/03/22 23:06:25;;;;;;;8.60;6.50;;;11.20;99.90;;;;;;2611947;54;20427;-73
2023/03/22 23:12:14;;;;;;;8.13;6.07;;;11.10;99.90;;;;;;2612066;54;20146;-73
2023/03/22 23:18:01;;;;;;;7.60;5.60;;;11.10;99.90;;;;;;2610749;54;20367;-73
2023/03/22 23:23:49;;;;;;;5.23;4.33;;;11.00;99.90;;;;;;2612299;46;20170;-73
2023/03/22 23:29:36;;;;;;;9.47;5.13;;;11.10;99.90;;;;;;2611365;54;20626;-73
2023/03/22 23:35:25;;;;;;;8.00;4.77;;;11.20;99.90;;;;;;2611879;54;20182;-73
2023/03/22 23:41:14;;;;;;;8.63;5.70;;;11.20;99.90;;;;;;2612163;54;20386;-73
2023/03/22 23:44:31;;;;;;;10.10;5.90;;;11.10;99.90;;;;;;2610428;54;20635;-73
2023/03/22 23:46:56;;;;;;;14.53;6.07;;;11.10;99.90;;;;;;2612195;50;20503;-73
2023/03/22 23:52:44;;;;;;;9.33;6.00;;;11.10;99.90;;;;;;2611938;54;20125;-73
2023/03/22 23:58:37;;;;;;;8.20;6.00;;;11.20;99.90;;;;;;2611534;54;20652;-73
